Helliar — 2EPP5 — position and weather

sailwx.info

Track history (hours):
 
Tides and Currents Weather Stations Pressure Air Temp Water Temp Dewpoint Dewpoint Depression Visibility Wind Speed Wind Dir Waves Ship Positions

Helliar

Last reported at 2015-May-23 19:29 UTC. Time now 2015-May-24 03:15 UTC.
Position N 57°48' W 001°37'.

Length 122 m; draft 5.6 m.

Type: Cargo ship. MMSI: 235087119.

Date/timePositionNaut miles runAvg speedWind from/ knotsBaromVisibWave heightAir tempDewpointWater temp
2015-May-23 19:29N 57°48' W 001°37'1314.3
2015-May-23 18:33N 57°35' W 001°41'1413.7
2015-May-23 17:33N 57°22' W 001°47'1413.7
2015-May-23 16:33N 57°10' W 002°01'3 2.8
2015-May-23 15:28N 57°09' W 002°05'0 0.0
2015-May-23 14:10N 57°09' W 002°05'0 0.0
2015-May-23 13:22N 57°09' W 002°05'0 0.0
2015-May-23 12:22N 57°09' W 002°05'0 0.0
2015-May-23 11:33N 57°09' W 002°05'0 0.0
2015-May-23 10:33N 57°09' W 002°05'0 0.0
2015-May-23 09:28N 57°09' W 002°05'0 0.0
2015-May-23 08:32N 57°09' W 002°05'0 0.0
2015-May-23 07:31N 57°09' W 002°05'1210.0
2015-May-23 06:19N 57°18' W 001°51'1215.3
2015-May-23 05:33N 57°28' W 001°40'1616.0
2015-May-23 04:33N 57°43' W 001°32'4 0.1
2015-May-21 19:33N 57°44' W 001°39'1616.0
2015-May-21 18:33N 57°28' W 001°42'1915.2
2015-May-21 17:18N 57°11' W 001°59'4 2.0
2015-May-21 15:10N 57°09' W 002°05'0 0.0
2015-May-21 14:22N 57°09' W 002°05'0 0.0
2015-May-21 13:22N 57°09' W 002°05'0 0.0
2015-May-21 12:22N 57°09' W 002°05'0 0.0
2015-May-21 11:28N 57°09' W 002°05'0 0.0
2015-May-21 10:28N 57°09' W 002°05'0 0.0
2015-May-21 09:28N 57°09' W 002°05'0 0.0
2015-May-21 08:16N 57°09' W 002°05'0 0.0
2015-May-21 07:04N 57°09' W 002°05'0 0.5
2015-May-21 06:32N 57°09' W 002°05'1010.5
2015-May-21 05:33N 57°16' W 001°52'1313.3
2015-May-21 04:33N 57°28' W 001°41'1211.7
2015-May-21 03:33N 57°39' W 001°37'1413.6
2015-May-21 02:33N 57°53' W 001°34'5 0.2
2015-May-19 19:25N 57°48' W 001°38'1315.2
2015-May-19 18:34N 57°35' W 001°41'1615.6
2015-May-19 17:34N 57°20' W 001°49'1514.3
2015-May-19 16:33N 57°08' W 002°04'1 0.5
2015-May-19 15:23N 57°09' W 002°05'0 0.0
2015-May-19 14:11N 57°09' W 002°05'0 0.0
2015-May-19 13:11N 57°09' W 002°05'0 0.0
2015-May-19 12:05N 57°09' W 002°05'0 0.0
2015-May-19 11:17N 57°09' W 002°05'0 0.0
2015-May-19 10:29N 57°09' W 002°05'0 0.0
2015-May-19 09:29N 57°09' W 002°05'0 0.0
2015-May-19 07:32N 57°09' W 002°05'0 0.0
2015-May-19 06:32N 57°09' W 002°05'0 0.0
2015-May-19 05:32N 57°09' W 002°05'1 0.8
2015-May-19 04:33N 57°09' W 002°04'2210.9
2015-May-19 02:31N 57°25' W 001°37'1313.0
2015-May-19 01:33N 57°37' W 001°43'1313.5
2015-May-19 00:33N 57°50' W 001°52'6712.9
2015-May-18 19:19N 58°54' W 002°31'1012.5
2015-May-18 18:33N 58°60' W 002°46'7 6.5
2015-May-18 17:32N 58°60' W 002°58'0 0.0
2015-May-18 16:32N 58°60' W 002°58'0 0.0
2015-May-18 15:32N 58°60' W 002°58'0 0.0
2015-May-18 14:32N 58°60' W 002°58'0 0.0
2015-May-18 13:32N 58°60' W 002°58'0 0.0
2015-May-18 12:32N 58°60' W 002°58'0 0.0
2015-May-18 11:32N 58°60' W 002°58'0 0.0
2015-May-18 10:32N 58°60' W 002°58'0 0.0
2015-May-18 09:32N 58°60' W 002°58'0 0.0
2015-May-18 08:32N 58°60' W 002°58'0 0.0
2015-May-18 07:32N 58°60' W 002°58'0 0.0
2015-May-18 06:32N 58°60' W 002°58'0 0.0
2015-May-18 05:32N 58°60' W 002°58'0 0.0
2015-May-18 04:32N 58°60' W 002°58'0 0.0
2015-May-18 03:32N 58°60' W 002°58'0 0.0
2015-May-18 02:32N 58°60' W 002°58'0 0.0
2015-May-18 01:32N 58°60' W 002°58'0 0.0
2015-May-18 00:32N 58°60' W 002°58'0 0.0
2015-May-17 23:32N 58°60' W 002°58'2 2.0
2015-May-17 22:33N 59°01' W 002°56'9 8.6
2015-May-17 21:33N 59°00' W 002°39'5 5.0
2015-May-17 20:33N 59°00' W 002°29'75 3.0
2015-May-16 19:15N 57°50' W 001°41'1014.7
2015-May-16 18:33N 57°40' W 001°40'3115.3
2015-May-16 16:32N 57°11' W 002°00'4 3.6
2015-May-16 15:33N 57°09' W 002°05'0 0.0
2015-May-16 14:33N 57°09' W 002°05'0 0.0
2015-May-16 13:33N 57°09' W 002°05'0 0.0
2015-May-16 12:32N 57°09' W 002°05'0 0.0
2015-May-16 11:33N 57°09' W 002°05'0 0.0
2015-May-16 10:33N 57°09' W 002°05'0 0.0
2015-May-16 09:33N 57°09' W 002°05'0 0.0
2015-May-16 08:30N 57°09' W 002°05'0 0.0
2015-May-16 07:32N 57°09' W 002°05'0 0.4
2015-May-16 06:34N 57°09' W 002°05'2612.4
2015-May-16 04:28N 57°31' W 001°41'1213.6
2015-May-16 03:33N 57°43' W 001°38'0 0.0
2015-May-14 19:33N 57°44' W 001°39'1413.0
2015-May-14 18:27N 57°30' W 001°42'2412.8
2015-May-14 16:33N 57°09' W 002°05'0 0.1
2015-May-14 15:33N 57°09' W 002°05'0 0.0
2015-May-14 14:33N 57°09' W 002°05'0 0.0
2015-May-14 13:33N 57°09' W 002°05'0 0.0
2015-May-14 12:09N 57°09' W 002°05'0 0.0
2015-May-14 11:33N 57°09' W 002°05'0 0.0
2015-May-14 10:27N 57°09' W 002°05'0 0.0
2015-May-14 09:33N 57°09' W 002°05'0 0.0
2015-May-14 08:21N 57°09' W 002°05'0 0.0
2015-May-14 07:21N 57°09' W 002°05'0 0.2
2015-May-14 06:32N 57°09' W 002°05'1111.1
2015-May-14 05:33N 57°17' W 001°52'1414.2
2015-May-14 04:33N 57°30' W 001°42'1414.0
2015-May-14 03:33N 57°44' W 001°39'  
Track history (hours):
 
Tides and Currents Weather Stations Pressure Air Temp Water Temp Dewpoint Dewpoint Depression Visibility Wind Speed Wind Dir Waves Ship Positions

Helliar

Last reported at 2015-May-23 19:29 UTC. Time now 2015-May-24 03:15 UTC.
Position N 57°48' W 001°37'.

Length 122 m; draft 5.6 m.

Type: Cargo ship. MMSI: 235087119.

Date/timePositionNaut miles runAvg speedWind from/ knotsBaromVisibWave heightAir tempDewpointWater temp
2015-May-23 19:29N 57°48' W 001°37'1314.3
2015-May-23 18:33N 57°35' W 001°41'1413.7
2015-May-23 17:33N 57°22' W 001°47'1413.7
2015-May-23 16:33N 57°10' W 002°01'3 2.8
2015-May-23 15:28N 57°09' W 002°05'0 0.0
2015-May-23 14:10N 57°09' W 002°05'0 0.0
2015-May-23 13:22N 57°09' W 002°05'0 0.0
2015-May-23 12:22N 57°09' W 002°05'0 0.0
2015-May-23 11:33N 57°09' W 002°05'0 0.0
2015-May-23 10:33N 57°09' W 002°05'0 0.0
2015-May-23 09:28N 57°09' W 002°05'0 0.0
2015-May-23 08:32N 57°09' W 002°05'0 0.0
2015-May-23 07:31N 57°09' W 002°05'1210.0
2015-May-23 06:19N 57°18' W 001°51'1215.3
2015-May-23 05:33N 57°28' W 001°40'1616.0
2015-May-23 04:33N 57°43' W 001°32'4 0.1
2015-May-21 19:33N 57°44' W 001°39'1616.0
2015-May-21 18:33N 57°28' W 001°42'1915.2
2015-May-21 17:18N 57°11' W 001°59'4 2.0
2015-May-21 15:10N 57°09' W 002°05'0 0.0
2015-May-21 14:22N 57°09' W 002°05'0 0.0
2015-May-21 13:22N 57°09' W 002°05'0 0.0
2015-May-21 12:22N 57°09' W 002°05'0 0.0
2015-May-21 11:28N 57°09' W 002°05'0 0.0
2015-May-21 10:28N 57°09' W 002°05'0 0.0
2015-May-21 09:28N 57°09' W 002°05'0 0.0
2015-May-21 08:16N 57°09' W 002°05'0 0.0
2015-May-21 07:04N 57°09' W 002°05'0 0.5
2015-May-21 06:32N 57°09' W 002°05'1010.5
2015-May-21 05:33N 57°16' W 001°52'1313.3
2015-May-21 04:33N 57°28' W 001°41'1211.7
2015-May-21 03:33N 57°39' W 001°37'1413.6
2015-May-21 02:33N 57°53' W 001°34'5 0.2
2015-May-19 19:25N 57°48' W 001°38'1315.2
2015-May-19 18:34N 57°35' W 001°41'1615.6
2015-May-19 17:34N 57°20' W 001°49'1514.3
2015-May-19 16:33N 57°08' W 002°04'1 0.5
2015-May-19 15:23N 57°09' W 002°05'0 0.0
2015-May-19 14:11N 57°09' W 002°05'0 0.0
2015-May-19 13:11N 57°09' W 002°05'0 0.0
2015-May-19 12:05N 57°09' W 002°05'0 0.0
2015-May-19 11:17N 57°09' W 002°05'0 0.0
2015-May-19 10:29N 57°09' W 002°05'0 0.0
2015-May-19 09:29N 57°09' W 002°05'0 0.0
2015-May-19 07:32N 57°09' W 002°05'0 0.0
2015-May-19 06:32N 57°09' W 002°05'0 0.0
2015-May-19 05:32N 57°09' W 002°05'1 0.8
2015-May-19 04:33N 57°09' W 002°04'2210.9
2015-May-19 02:31N 57°25' W 001°37'1313.0
2015-May-19 01:33N 57°37' W 001°43'1313.5
2015-May-19 00:33N 57°50' W 001°52'6712.9
2015-May-18 19:19N 58°54' W 002°31'1012.5
2015-May-18 18:33N 58°60' W 002°46'7 6.5
2015-May-18 17:32N 58°60' W 002°58'0 0.0
2015-May-18 16:32N 58°60' W 002°58'0 0.0
2015-May-18 15:32N 58°60' W 002°58'0 0.0
2015-May-18 14:32N 58°60' W 002°58'0 0.0
2015-May-18 13:32N 58°60' W 002°58'0 0.0
2015-May-18 12:32N 58°60' W 002°58'0 0.0
2015-May-18 11:32N 58°60' W 002°58'0 0.0
2015-May-18 10:32N 58°60' W 002°58'0 0.0
2015-May-18 09:32N 58°60' W 002°58'0 0.0
2015-May-18 08:32N 58°60' W 002°58'0 0.0
2015-May-18 07:32N 58°60' W 002°58'0 0.0
2015-May-18 06:32N 58°60' W 002°58'0 0.0
2015-May-18 05:32N 58°60' W 002°58'0 0.0
2015-May-18 04:32N 58°60' W 002°58'0 0.0
2015-May-18 03:32N 58°60' W 002°58'0 0.0
2015-May-18 02:32N 58°60' W 002°58'0 0.0
2015-May-18 01:32N 58°60' W 002°58'0 0.0
2015-May-18 00:32N 58°60' W 002°58'0 0.0
2015-May-17 23:32N 58°60' W 002°58'2 2.0
2015-May-17 22:33N 59°01' W 002°56'9 8.6
2015-May-17 21:33N 59°00' W 002°39'5 5.0
2015-May-17 20:33N 59°00' W 002°29'75 3.0
2015-May-16 19:15N 57°50' W 001°41'1014.7
2015-May-16 18:33N 57°40' W 001°40'3115.3
2015-May-16 16:32N 57°11' W 002°00'4 3.6
2015-May-16 15:33N 57°09' W 002°05'0 0.0
2015-May-16 14:33N 57°09' W 002°05'0 0.0
2015-May-16 13:33N 57°09' W 002°05'0 0.0
2015-May-16 12:32N 57°09' W 002°05'0 0.0
2015-May-16 11:33N 57°09' W 002°05'0 0.0
2015-May-16 10:33N 57°09' W 002°05'0 0.0
2015-May-16 09:33N 57°09' W 002°05'0 0.0
2015-May-16 08:30N 57°09' W 002°05'0 0.0
2015-May-16 07:32N 57°09' W 002°05'0 0.4
2015-May-16 06:34N 57°09' W 002°05'2612.4
2015-May-16 04:28N 57°31' W 001°41'1213.6
2015-May-16 03:33N 57°43' W 001°38'0 0.0
2015-May-14 19:33N 57°44' W 001°39'1413.0
2015-May-14 18:27N 57°30' W 001°42'2412.8
2015-May-14 16:33N 57°09' W 002°05'0 0.1
2015-May-14 15:33N 57°09' W 002°05'0 0.0
2015-May-14 14:33N 57°09' W 002°05'0 0.0
2015-May-14 13:33N 57°09' W 002°05'0 0.0
2015-May-14 12:09N 57°09' W 002°05'0 0.0
2015-May-14 11:33N 57°09' W 002°05'0 0.0
2015-May-14 10:27N 57°09' W 002°05'0 0.0
2015-May-14 09:33N 57°09' W 002°05'0 0.0
2015-May-14 08:21N 57°09' W 002°05'0 0.0
2015-May-14 07:21N 57°09' W 002°05'0 0.2
2015-May-14 06:32N 57°09' W 002°05'1111.1
2015-May-14 05:33N 57°17' W 001°52'1414.2
2015-May-14 04:33N 57°30' W 001°42'1414.0
2015-May-14 03:33N 57°44' W 001°39'  

Dump ship's entire track history